Airfield :
LOGIN :

Register | Disclaimer

   EN    FR    IT 

 










Legend :    VFR   Marginal VFR   IFR   Intensive IFR   Very Intensive IFR
Visi :
Ceiling :
>= 8 km
>= 3000ft
5 to 8 km
1000 to 3000 ft
1500m to 5 km
500 to 1000 ft
800 to 1500m
200 to 500 ft
< 800m
< 200 ft
Symbols :   Thunderstorms  Fog  Heavy snow  Heavy precipitations  Wind > 20 kt
SIGMETs :     Misc.  Thunderstorms  Icing  Turbulence  Mountain Waves  Volcanic Ashes






- Airport Elevation : 80 ft
- IATA code : LPL


EGGP - Liverpool John Lennon

CURRENT METAR :
  • 280220Z AUTO 10011KT 6000 RA BKN004/// OVC008/// 07/07 Q1000

EXPIRED METARs :
  • 280150Z AUTO 09012KT 4200 RA BKN006/// OVC009/// 07/07 Q1001 RERA
  • 280120Z AUTO 10012KT 5000 +RA BKN006/// OVC009/// 07/07 Q1002
  • 280050Z AUTO 09011KT 5000 RA BKN006/// OVC015/// 07/07 Q1003
  • 280020Z AUTO 09013KT 8000 RA BKN007/// OVC017/// 08/07 Q1004

TAF TAF EGGP
Valid from the 28 at 00:00 until the 29 at 00:00 UTC


272259Z 2800/2824 12010KT 9999 FEW006 BKN016
TEMPO 2800/2810 6000 RA BKN012
PROB30
TEMPO 2800/2809 3000 +RA BKN004
BECMG 2805/2808 25012KT
PROB30
TEMPO 2806/2814 26015G25KT
TEMPO 2817/2821 18010KT 6000 RA BKN014
PROB30
TEMPO 2817/2821 4000 +RA BKN006
ATIS : +44 151 907 2000 (option 5 or ext 5150)
Met : +44 871 750 5150



MET'MAP, your aeronautical weather chart ! - Copyright ORBIFLY December 2007 - Disclaimer

ORBIFLY MET'MAP TEAM :

Programming & Development : Alexandra Zaïnal
Concept & original design : Baudouin d'Aumeries
Assistance for programming : Marc-Olivier Méhu
Technical & hardware support : Manuel Goepfert

Contact : metmap@orbifly.com




SOURCES & CREDITS :

   NOAA